sensor_id;sensor_type;location;lat;lon;timestamp;temperature;humidity
11152;DHT22;5630;49.342;10.802;2023-02-11T00:02:01;-0.50;99.90
11152;DHT22;5630;49.342;10.802;2023-02-11T00:04:28;-0.50;99.90
11152;DHT22;5630;49.342;10.802;2023-02-11T00:06:53;-0.50;99.90
11152;DHT22;5630;49.342;10.802;2023-02-11T00:09:19;-0.50;99.90
11152;DHT22;5630;49.342;10.802;2023-02-11T00:11:45;-0.50;99.90
11152;DHT22;5630;49.342;10.802;2023-02-11T00:14:10;-0.50;99.90
11152;DHT22;5630;49.342;10.802;2023-02-11T00:16:36;-0.50;99.90
11152;DHT22;5630;49.342;10.802;2023-02-11T00:19:03;-0.50;99.90
11152;DHT22;5630;49.342;10.802;2023-02-11T00:21:30;-0.50;99.90
11152;DHT22;5630;49.342;10.802;2023-02-11T00:23:57;-0.50;99.90
11152;DHT22;5630;49.342;10.802;2023-02-11T00:26:26;-0.50;99.90
11152;DHT22;5630;49.342;10.802;2023-02-11T00:28:52;-0.50;99.90
11152;DHT22;5630;49.342;10.802;2023-02-11T00:31:19;-0.50;99.90
11152;DHT22;5630;49.342;10.802;2023-02-11T00:33:45;-0.50;99.90
11152;DHT22;5630;49.342;10.802;2023-02-11T00:36:16;-0.50;99.90
11152;DHT22;5630;49.342;10.802;2023-02-11T00:38:43;-0.50;99.90
11152;DHT22;5630;49.342;10.802;2023-02-11T00:41:09;-0.60;99.90
11152;DHT22;5630;49.342;10.802;2023-02-11T00:43:35;-0.60;99.90
11152;DHT22;5630;49.342;10.802;2023-02-11T00:46:01;-0.50;99.90
11152;DHT22;5630;49.342;10.802;2023-02-11T00:48:26;-0.50;99.90
11152;DHT22;5630;49.342;10.802;2023-02-11T00:50:52;-0.50;99.90
11152;DHT22;5630;49.342;10.802;2023-02-11T00:53:18;-0.50;99.90
11152;DHT22;5630;49.342;10.802;2023-02-11T00:55:43;-0.60;99.90
11152;DHT22;5630;49.342;10.802;2023-02-11T00:58:09;-0.60;99.90
11152;DHT22;5630;49.342;10.802;2023-02-11T01:00:34;-0.60;99.90
11152;DHT22;5630;49.342;10.802;2023-02-11T01:03:00;-0.60;99.90
11152;DHT22;5630;49.342;10.802;2023-02-11T01:05:26;-0.60;99.90
11152;DHT22;5630;49.342;10.802;2023-02-11T01:07:51;-0.60;99.90
11152;DHT22;5630;49.342;10.802;2023-02-11T01:10:17;-0.60;99.90
11152;DHT22;5630;49.342;10.802;2023-02-11T01:12:43;-0.60;99.90
11152;DHT22;5630;49.342;10.802;2023-02-11T01:15:10;-0.60;99.90
11152;DHT22;5630;49.342;10.802;2023-02-11T01:17:36;-0.60;99.90
11152;DHT22;5630;49.342;10.802;2023-02-11T01:20:10;-0.60;99.90
11152;DHT22;5630;49.342;10.802;2023-02-11T01:22:35;-0.60;99.90
11152;DHT22;5630;49.342;10.802;2023-02-11T01:25:04;-0.60;99.90
11152;DHT22;5630;49.342;10.802;2023-02-11T01:27:30;-0.50;99.90
11152;DHT22;5630;49.342;10.802;2023-02-11T01:29:55;-0.60;99.90
11152;DHT22;5630;49.342;10.802;2023-02-11T01:32:21;-0.60;99.90
11152;DHT22;5630;49.342;10.802;2023-02-11T01:34:46;-0.60;99.90
11152;DHT22;5630;49.342;10.802;2023-02-11T01:37:12;-0.60;99.90
11152;DHT22;5630;49.342;10.802;2023-02-11T01:39:38;-0.60;99.90
11152;DHT22;5630;49.342;10.802;2023-02-11T01:42:03;-0.60;99.90
11152;DHT22;5630;49.342;10.802;2023-02-11T01:44:32;-0.60;99.90
11152;DHT22;5630;49.342;10.802;2023-02-11T01:46:59;-0.60;99.90
11152;DHT22;5630;49.342;10.802;2023-02-11T01:49:31;-0.60;99.90
11152;DHT22;5630;49.342;10.802;2023-02-11T01:52:17;-0.60;99.90
11152;DHT22;5630;49.342;10.802;2023-02-11T01:54:50;-0.50;99.90
11152;DHT22;5630;49.342;10.802;2023-02-11T01:57:37;-0.50;99.90
11152;DHT22;5630;49.342;10.802;2023-02-11T02:00:13;-0.50;99.90
11152;DHT22;5630;49.342;10.802;2023-02-11T02:08:00;-0.40;99.90
11152;DHT22;5630;49.342;10.802;2023-02-11T02:10:27;-0.40;99.90
11152;DHT22;5630;49.342;10.802;2023-02-11T02:12:53;-0.30;99.90
11152;DHT22;5630;49.342;10.802;2023-02-11T02:15:26;-0.30;99.90
11152;DHT22;5630;49.342;10.802;2023-02-11T02:17:58;-0.30;99.90
11152;DHT22;5630;49.342;10.802;2023-02-11T02:26:52;-0.30;99.90
11152;DHT22;5630;49.342;10.802;2023-02-11T02:29:36;-0.20;99.90
11152;DHT22;5630;49.342;10.802;2023-02-11T02:32:28;-0.20;99.90
11152;DHT22;5630;49.342;10.802;2023-02-11T02:35:09;-0.10;99.90
11152;DHT22;5630;49.342;10.802;2023-02-11T02:40:57;-0.10;99.90
11152;DHT22;5630;49.342;10.802;2023-02-11T02:43:25;0.00;99.90
11152;DHT22;5630;49.342;10.802;2023-02-11T02:45:52;-0.10;99.90
11152;DHT22;5630;49.342;10.802;2023-02-11T02:48:27;-0.10;99.90
11152;DHT22;5630;49.342;10.802;2023-02-11T02:54:21;0.00;99.90
11152;DHT22;5630;49.342;10.802;2023-02-11T03:00:12;0.00;99.90
11152;DHT22;5630;49.342;10.802;2023-02-11T03:10:28;0.00;99.90
11152;DHT22;5630;49.342;10.802;2023-02-11T03:12:56;0.00;99.90
11152;DHT22;5630;49.342;10.802;2023-02-11T03:15:24;0.00;99.90
11152;DHT22;5630;49.342;10.802;2023-02-11T03:17:53;0.00;99.90
11152;DHT22;5630;49.342;10.802;2023-02-11T03:20:21;0.00;99.90
11152;DHT22;5630;49.342;10.802;2023-02-11T03:23:03;0.10;99.90
11152;DHT22;5630;49.342;10.802;2023-02-11T03:25:35;0.00;99.90
11152;DHT22;5630;49.342;10.802;2023-02-11T03:30:57;0.10;99.90
11152;DHT22;5630;49.342;10.802;2023-02-11T03:33:30;0.10;99.90
11152;DHT22;5630;49.342;10.802;2023-02-11T03:36:21;0.00;99.90
11152;DHT22;5630;49.342;10.802;2023-02-11T03:38:50;0.10;99.90
11152;DHT22;5630;49.342;10.802;2023-02-11T03:41:20;0.10;99.90
11152;DHT22;5630;49.342;10.802;2023-02-11T03:43:53;0.20;99.90
11152;DHT22;5630;49.342;10.802;2023-02-11T03:46:23;0.20;99.90
11152;DHT22;5630;49.342;10.802;2023-02-11T03:48:54;0.30;99.90
11152;DHT22;5630;49.342;10.802;2023-02-11T03:51:22;0.30;99.90
11152;DHT22;5630;49.342;10.802;2023-02-11T03:53:50;0.30;99.90
11152;DHT22;5630;49.342;10.802;2023-02-11T03:56:19;0.30;99.90
11152;DHT22;5630;49.342;10.802;2023-02-11T03:58:47;0.30;99.90
11152;DHT22;5630;49.342;10.802;2023-02-11T04:01:13;0.30;99.90
11152;DHT22;5630;49.342;10.802;2023-02-11T04:03:38;0.30;99.90
11152;DHT22;5630;49.342;10.802;2023-02-11T04:06:04;0.30;99.90
11152;DHT22;5630;49.342;10.802;2023-02-11T04:08:30;0.30;99.90
11152;DHT22;5630;49.342;10.802;2023-02-11T04:10:57;0.40;99.90
11152;DHT22;5630;49.342;10.802;2023-02-11T04:13:22;0.40;99.90
11152;DHT22;5630;49.342;10.802;2023-02-11T04:15:48;0.40;99.90
11152;DHT22;5630;49.342;10.802;2023-02-11T04:18:13;0.40;99.90
11152;DHT22;5630;49.342;10.802;2023-02-11T04:20:39;0.40;99.90
11152;DHT22;5630;49.342;10.802;2023-02-11T04:23:05;0.40;99.90
11152;DHT22;5630;49.342;10.802;2023-02-11T04:25:30;0.50;99.90
11152;DHT22;5630;49.342;10.802;2023-02-11T04:27:56;0.50;99.90
11152;DHT22;5630;49.342;10.802;2023-02-11T04:30:21;0.50;99.90
11152;DHT22;5630;49.342;10.802;2023-02-11T04:32:47;0.50;99.90
11152;DHT22;5630;49.342;10.802;2023-02-11T04:35:13;0.50;99.90
11152;DHT22;5630;49.342;10.802;2023-02-11T04:37:38;0.50;99.90
11152;DHT22;5630;49.342;10.802;2023-02-11T04:40:04;0.50;99.90
11152;DHT22;5630;49.342;10.802;2023-02-11T04:42:30;0.50;99.90
11152;DHT22;5630;49.342;10.802;2023-02-11T04:44:55;0.50;99.90
11152;DHT22;5630;49.342;10.802;2023-02-11T04:47:21;0.50;99.90
11152;DHT22;5630;49.342;10.802;2023-02-11T04:49:46;0.50;99.90
11152;DHT22;5630;49.342;10.802;2023-02-11T04:52:12;0.50;99.90
11152;DHT22;5630;49.342;10.802;2023-02-11T04:54:38;0.50;99.90
11152;DHT22;5630;49.342;10.802;2023-02-11T04:57:03;0.50;99.90
11152;DHT22;5630;49.342;10.802;2023-02-11T04:59:29;0.60;99.90
11152;DHT22;5630;49.342;10.802;2023-02-11T05:01:54;0.60;99.90
11152;DHT22;5630;49.342;10.802;2023-02-11T05:04:20;0.60;99.90
11152;DHT22;5630;49.342;10.802;2023-02-11T05:06:45;0.70;99.90
11152;DHT22;5630;49.342;10.802;2023-02-11T05:09:12;0.70;99.90
11152;DHT22;5630;49.342;10.802;2023-02-11T05:11:37;0.70;99.90
11152;DHT22;5630;49.342;10.802;2023-02-11T05:14:04;0.60;99.90
11152;DHT22;5630;49.342;10.802;2023-02-11T05:16:30;0.70;99.90
11152;DHT22;5630;49.342;10.802;2023-02-11T05:18:56;0.70;99.90
11152;DHT22;5630;49.342;10.802;2023-02-11T05:21:22;0.70;99.90
11152;DHT22;5630;49.342;10.802;2023-02-11T05:23:47;0.70;99.90
11152;DHT22;5630;49.342;10.802;2023-02-11T05:26:13;0.70;99.90
11152;DHT22;5630;49.342;10.802;2023-02-11T05:28:39;0.70;99.90
11152;DHT22;5630;49.342;10.802;2023-02-11T05:31:05;0.70;99.90
11152;DHT22;5630;49.342;10.802;2023-02-11T05:33:31;0.70;99.90
11152;DHT22;5630;49.342;10.802;2023-02-11T05:36:06;0.70;99.90
11152;DHT22;5630;49.342;10.802;2023-02-11T05:38:32;0.70;99.90
11152;DHT22;5630;49.342;10.802;2023-02-11T05:40:58;0.70;99.90
11152;DHT22;5630;49.342;10.802;2023-02-11T05:43:24;0.70;99.90
11152;DHT22;5630;49.342;10.802;2023-02-11T05:45:49;0.70;99.90
11152;DHT22;5630;49.342;10.802;2023-02-11T05:48:15;0.80;99.90
11152;DHT22;5630;49.342;10.802;2023-02-11T05:50:41;0.70;99.90
11152;DHT22;5630;49.342;10.802;2023-02-11T05:53:06;0.80;99.90
11152;DHT22;5630;49.342;10.802;2023-02-11T05:55:32;0.80;99.90
11152;DHT22;5630;49.342;10.802;2023-02-11T05:57:58;0.80;99.90
11152;DHT22;5630;49.342;10.802;2023-02-11T06:00:24;0.80;99.90
11152;DHT22;5630;49.342;10.802;2023-02-11T06:02:50;0.80;99.90
11152;DHT22;5630;49.342;10.802;2023-02-11T06:05:15;0.80;99.90
11152;DHT22;5630;49.342;10.802;2023-02-11T06:07:41;0.80;99.90
11152;DHT22;5630;49.342;10.802;2023-02-11T06:10:08;0.80;99.90
11152;DHT22;5630;49.342;10.802;2023-02-11T06:12:35;0.90;99.90
11152;DHT22;5630;49.342;10.802;2023-02-11T06:15:01;0.90;99.90
11152;DHT22;5630;49.342;10.802;2023-02-11T06:17:26;0.90;99.90
11152;DHT22;5630;49.342;10.802;2023-02-11T06:19:55;0.80;99.90
11152;DHT22;5630;49.342;10.802;2023-02-11T06:22:21;0.80;99.90
11152;DHT22;5630;49.342;10.802;2023-02-11T06:24:47;0.80;99.90
11152;DHT22;5630;49.342;10.802;2023-02-11T06:27:12;0.80;99.90
11152;DHT22;5630;49.342;10.802;2023-02-11T06:29:38;0.90;99.90
11152;DHT22;5630;49.342;10.802;2023-02-11T06:32:03;0.90;99.90
11152;DHT22;5630;49.342;10.802;2023-02-11T06:34:29;0.90;99.90
11152;DHT22;5630;49.342;10.802;2023-02-11T06:36:54;0.90;99.90
11152;DHT22;5630;49.342;10.802;2023-02-11T06:39:20;1.00;99.90
11152;DHT22;5630;49.342;10.802;2023-02-11T06:41:45;1.00;99.90
11152;DHT22;5630;49.342;10.802;2023-02-11T06:44:11;1.00;99.90
11152;DHT22;5630;49.342;10.802;2023-02-11T06:46:36;1.10;99.90
11152;DHT22;5630;49.342;10.802;2023-02-11T06:49:02;1.10;99.90
11152;DHT22;5630;49.342;10.802;2023-02-11T06:51:28;1.40;99.90
11152;DHT22;5630;49.342;10.802;2023-02-11T06:53:53;1.70;99.90
11152;DHT22;5630;49.342;10.802;2023-02-11T06:56:22;1.70;99.90
11152;DHT22;5630;49.342;10.802;2023-02-11T06:58:51;1.60;99.90
11152;DHT22;5630;49.342;10.802;2023-02-11T07:01:17;1.50;99.90
11152;DHT22;5630;49.342;10.802;2023-02-11T07:03:44;1.40;99.90
11152;DHT22;5630;49.342;10.802;2023-02-11T07:06:13;1.50;99.90
11152;DHT22;5630;49.342;10.802;2023-02-11T07:08:39;1.50;99.90
11152;DHT22;5630;49.342;10.802;2023-02-11T07:11:15;1.50;99.90
11152;DHT22;5630;49.342;10.802;2023-02-11T07:13:42;1.40;99.90
11152;DHT22;5630;49.342;10.802;2023-02-11T07:16:10;1.50;99.90
11152;DHT22;5630;49.342;10.802;2023-02-11T07:18:36;1.40;99.90
11152;DHT22;5630;49.342;10.802;2023-02-11T07:21:06;1.40;99.90
11152;DHT22;5630;49.342;10.802;2023-02-11T07:23:33;1.50;99.90
11152;DHT22;5630;49.342;10.802;2023-02-11T07:26:04;1.50;99.90
11152;DHT22;5630;49.342;10.802;2023-02-11T07:28:30;1.50;99.90
11152;DHT22;5630;49.342;10.802;2023-02-11T07:30:56;1.40;99.90
11152;DHT22;5630;49.342;10.802;2023-02-11T07:33:22;1.40;99.90
11152;DHT22;5630;49.342;10.802;2023-02-11T07:35:48;1.60;99.90
11152;DHT22;5630;49.342;10.802;2023-02-11T07:38:13;1.60;99.90
11152;DHT22;5630;49.342;10.802;2023-02-11T07:40:39;1.60;99.90
11152;DHT22;5630;49.342;10.802;2023-02-11T07:43:04;1.70;99.90
11152;DHT22;5630;49.342;10.802;2023-02-11T07:45:30;1.70;99.90
11152;DHT22;5630;49.342;10.802;2023-02-11T07:47:56;1.60;99.90
11152;DHT22;5630;49.342;10.802;2023-02-11T07:50:21;1.60;99.90
11152;DHT22;5630;49.342;10.802;2023-02-11T07:52:47;1.70;99.90
11152;DHT22;5630;49.342;10.802;2023-02-11T07:55:12;1.70;99.90
11152;DHT22;5630;49.342;10.802;2023-02-11T07:57:38;1.70;99.90
11152;DHT22;5630;49.342;10.802;2023-02-11T08:00:04;1.80;99.90
11152;DHT22;5630;49.342;10.802;2023-02-11T08:02:30;1.90;99.90
11152;DHT22;5630;49.342;10.802;2023-02-11T08:04:56;1.80;99.90
11152;DHT22;5630;49.342;10.802;2023-02-11T08:07:21;1.80;99.90
11152;DHT22;5630;49.342;10.802;2023-02-11T08:09:47;1.90;99.90
11152;DHT22;5630;49.342;10.802;2023-02-11T08:12:12;2.00;99.90
11152;DHT22;5630;49.342;10.802;2023-02-11T08:14:38;2.00;99.90
11152;DHT22;5630;49.342;10.802;2023-02-11T08:17:03;2.00;99.90
11152;DHT22;5630;49.342;10.802;2023-02-11T08:19:29;2.70;99.90
11152;DHT22;5630;49.342;10.802;2023-02-11T08:21:55;4.20;99.90
11152;DHT22;5630;49.342;10.802;2023-02-11T08:24:21;4.80;99.90
11152;DHT22;5630;49.342;10.802;2023-02-11T08:26:47;5.30;99.90
11152;DHT22;5630;49.342;10.802;2023-02-11T08:29:14;4.70;99.90
11152;DHT22;5630;49.342;10.802;2023-02-11T08:31:42;4.30;99.90
11152;DHT22;5630;49.342;10.802;2023-02-11T08:34:10;3.90;99.90
11152;DHT22;5630;49.342;10.802;2023-02-11T08:36:37;3.80;99.90
11152;DHT22;5630;49.342;10.802;2023-02-11T08:39:06;3.60;99.90
11152;DHT22;5630;49.342;10.802;2023-02-11T08:41:33;3.50;99.90
11152;DHT22;5630;49.342;10.802;2023-02-11T08:43:59;3.60;99.90
11152;DHT22;5630;49.342;10.802;2023-02-11T08:46:26;3.70;99.90
11152;DHT22;5630;49.342;10.802;2023-02-11T08:48:51;3.80;99.90
11152;DHT22;5630;49.342;10.802;2023-02-11T08:51:27;3.80;99.90
11152;DHT22;5630;49.342;10.802;2023-02-11T08:53:55;3.90;99.90
11152;DHT22;5630;49.342;10.802;2023-02-11T08:56:21;3.80;99.90
11152;DHT22;5630;49.342;10.802;2023-02-11T08:58:50;3.80;99.90
11152;DHT22;5630;49.342;10.802;2023-02-11T09:01:22;3.80;99.90
11152;DHT22;5630;49.342;10.802;2023-02-11T09:03:48;3.80;99.90
11152;DHT22;5630;49.342;10.802;2023-02-11T09:06:14;3.90;99.90
11152;DHT22;5630;49.342;10.802;2023-02-11T09:08:43;3.90;99.90
11152;DHT22;5630;49.342;10.802;2023-02-11T09:11:09;3.80;99.90
11152;DHT22;5630;49.342;10.802;2023-02-11T09:13:35;3.80;99.90
11152;DHT22;5630;49.342;10.802;2023-02-11T09:16:03;3.90;99.90
11152;DHT22;5630;49.342;10.802;2023-02-11T09:18:29;3.90;99.90
11152;DHT22;5630;49.342;10.802;2023-02-11T09:21:06;3.90;99.90
11152;DHT22;5630;49.342;10.802;2023-02-11T09:23:32;3.90;99.90
11152;DHT22;5630;49.342;10.802;2023-02-11T09:26:04;3.90;99.90
11152;DHT22;5630;49.342;10.802;2023-02-11T09:28:30;4.10;99.90
11152;DHT22;5630;49.342;10.802;2023-02-11T09:30:56;4.10;99.90
11152;DHT22;5630;49.342;10.802;2023-02-11T09:33:21;4.10;99.90
11152;DHT22;5630;49.342;10.802;2023-02-11T09:35:47;4.30;99.90
11152;DHT22;5630;49.342;10.802;2023-02-11T09:38:12;4.30;99.90
11152;DHT22;5630;49.342;10.802;2023-02-11T09:40:42;4.40;99.90
11152;DHT22;5630;49.342;10.802;2023-02-11T09:43:18;4.40;99.90
11152;DHT22;5630;49.342;10.802;2023-02-11T09:45:45;4.60;99.90
11152;DHT22;5630;49.342;10.802;2023-02-11T09:50:48;4.60;99.90
11152;DHT22;5630;49.342;10.802;2023-02-11T09:55:50;5.10;99.90
11152;DHT22;5630;49.342;10.802;2023-02-11T10:01:03;5.40;99.90
11152;DHT22;5630;49.342;10.802;2023-02-11T10:14:49;5.40;99.90
11152;DHT22;5630;49.342;10.802;2023-02-11T10:23:21;6.20;99.90
11152;DHT22;5630;49.342;10.802;2023-02-11T10:25:51;6.50;99.90
11152;DHT22;5630;49.342;10.802;2023-02-11T10:28:22;6.60;99.90
11152;DHT22;5630;49.342;10.802;2023-02-11T10:31:10;6.70;99.90
11152;DHT22;5630;49.342;10.802;2023-02-11T10:36:27;6.80;99.90
11152;DHT22;5630;49.342;10.802;2023-02-11T10:38:54;6.90;99.90
11152;DHT22;5630;49.342;10.802;2023-02-11T10:41:23;7.10;99.90
11152;DHT22;5630;49.342;10.802;2023-02-11T10:43:51;7.30;99.90
11152;DHT22;5630;49.342;10.802;2023-02-11T10:46:21;7.50;99.90
11152;DHT22;5630;49.342;10.802;2023-02-11T10:48:51;7.60;99.90
11152;DHT22;5630;49.342;10.802;2023-02-11T10:51:21;8.00;99.90
11152;DHT22;5630;49.342;10.802;2023-02-11T10:56:40;8.40;99.90
11152;DHT22;5630;49.342;10.802;2023-02-11T10:59:30;8.70;99.90
11152;DHT22;5630;49.342;10.802;2023-02-11T11:02:00;9.00;99.90
11152;DHT22;5630;49.342;10.802;2023-02-11T11:12:30;9.00;99.90
11152;DHT22;5630;49.342;10.802;2023-02-11T11:14:59;8.90;99.90
11152;DHT22;5630;49.342;10.802;2023-02-11T11:17:25;8.80;99.90
11152;DHT22;5630;49.342;10.802;2023-02-11T11:22:39;8.40;99.90
11152;DHT22;5630;49.342;10.802;2023-02-11T11:25:18;8.40;99.90
11152;DHT22;5630;49.342;10.802;2023-02-11T11:27:48;8.30;99.90
11152;DHT22;5630;49.342;10.802;2023-02-11T11:30:15;8.20;99.90
11152;DHT22;5630;49.342;10.802;2023-02-11T11:32:41;8.20;99.90
11152;DHT22;5630;49.342;10.802;2023-02-11T11:35:20;8.20;99.90
11152;DHT22;5630;49.342;10.802;2023-02-11T11:37:53;7.90;99.90
11152;DHT22;5630;49.342;10.802;2023-02-11T11:40:27;7.70;99.90
11152;DHT22;5630;49.342;10.802;2023-02-11T11:45:55;7.60;99.90
11152;DHT22;5630;49.342;10.802;2023-02-11T11:48:42;7.70;99.90
11152;DHT22;5630;49.342;10.802;2023-02-11T11:51:10;7.70;99.90
11152;DHT22;5630;49.342;10.802;2023-02-11T11:53:44;7.70;99.90
11152;DHT22;5630;49.342;10.802;2023-02-11T11:56:16;7.80;99.90
11152;DHT22;5630;49.342;10.802;2023-02-11T11:58:42;7.80;99.90
11152;DHT22;5630;49.342;10.802;2023-02-11T12:10:20;7.30;99.90
11152;DHT22;5630;49.342;10.802;2023-02-11T12:15:26;7.30;99.90
11152;DHT22;5630;49.342;10.802;2023-02-11T12:23:41;7.00;99.90
11152;DHT22;5630;49.342;10.802;2023-02-11T12:29:19;6.80;99.90
11152;DHT22;5630;49.342;10.802;2023-02-11T12:37:05;6.70;99.90
11152;DHT22;5630;49.342;10.802;2023-02-11T12:39:43;6.70;99.90
11152;DHT22;5630;49.342;10.802;2023-02-11T12:49:11;6.70;99.90
11152;DHT22;5630;49.342;10.802;2023-02-11T12:54:41;6.70;99.90
11152;DHT22;5630;49.342;10.802;2023-02-11T12:57:18;6.50;99.90
11152;DHT22;5630;49.342;10.802;2023-02-11T13:00:12;6.50;99.90
11152;DHT22;5630;49.342;10.802;2023-02-11T13:08:11;6.60;99.90
11152;DHT22;5630;49.342;10.802;2023-02-11T13:10:46;6.40;99.90
11152;DHT22;5630;49.342;10.802;2023-02-11T13:13:26;6.50;99.90
11152;DHT22;5630;49.342;10.802;2023-02-11T13:16:06;6.50;99.90
11152;DHT22;5630;49.342;10.802;2023-02-11T13:21:30;6.60;99.90
11152;DHT22;5630;49.342;10.802;2023-02-11T13:27:14;6.50;99.90
11152;DHT22;5630;49.342;10.802;2023-02-11T13:32:11;7.60;99.90
11152;DHT22;5630;49.342;10.802;2023-02-11T13:37:21;7.70;99.90
11152;DHT22;5630;49.342;10.802;2023-02-11T13:42:59;7.20;99.90
11152;DHT22;5630;49.342;10.802;2023-02-11T13:45:43;7.00;99.90
11152;DHT22;5630;49.342;10.802;2023-02-11T13:48:37;7.00;99.90
11152;DHT22;5630;49.342;10.802;2023-02-11T13:51:11;6.90;99.90
11152;DHT22;5630;49.342;10.802;2023-02-11T13:53:50;6.90;99.90
11152;DHT22;5630;49.342;10.802;2023-02-11T13:56:28;6.90;99.90
11152;DHT22;5630;49.342;10.802;2023-02-11T13:58:54;6.80;99.90
11152;DHT22;5630;49.342;10.802;2023-02-11T14:04:33;6.80;99.90
11152;DHT22;5630;49.342;10.802;2023-02-11T14:07:28;6.70;99.90
11152;DHT22;5630;49.342;10.802;2023-02-11T14:13:31;6.60;99.90
11152;DHT22;5630;49.342;10.802;2023-02-11T14:23:45;6.50;99.90
11152;DHT22;5630;49.342;10.802;2023-02-11T14:34:30;6.20;99.90
11152;DHT22;5630;49.342;10.802;2023-02-11T14:42:28;6.20;99.90
11152;DHT22;5630;49.342;10.802;2023-02-11T14:44:57;6.20;99.90
11152;DHT22;5630;49.342;10.802;2023-02-11T14:50:32;6.30;99.90
11152;DHT22;5630;49.342;10.802;2023-02-11T14:53:00;6.20;99.90
11152;DHT22;5630;49.342;10.802;2023-02-11T14:55:32;6.20;99.90
11152;DHT22;5630;49.342;10.802;2023-02-11T14:58:14;6.10;99.90
11152;DHT22;5630;49.342;10.802;2023-02-11T15:06:02;6.20;99.90
11152;DHT22;5630;49.342;10.802;2023-02-11T15:08:29;6.20;99.90
11152;DHT22;5630;49.342;10.802;2023-02-11T15:10:56;6.30;99.90
11152;DHT22;5630;49.342;10.802;2023-02-11T15:13:24;6.30;99.90
11152;DHT22;5630;49.342;10.802;2023-02-11T15:15:55;6.30;99.90
11152;DHT22;5630;49.342;10.802;2023-02-11T15:18:27;6.30;99.90
11152;DHT22;5630;49.342;10.802;2023-02-11T15:20:55;6.20;99.90
11152;DHT22;5630;49.342;10.802;2023-02-11T15:23:26;6.20;99.90
11152;DHT22;5630;49.342;10.802;2023-02-11T15:25:53;6.10;99.90
11152;DHT22;5630;49.342;10.802;2023-02-11T15:28:25;6.10;99.90
11152;DHT22;5630;49.342;10.802;2023-02-11T15:31:01;6.10;99.90
11152;DHT22;5630;49.342;10.802;2023-02-11T15:33:27;6.00;99.90
11152;DHT22;5630;49.342;10.802;2023-02-11T15:35:59;6.00;99.90
11152;DHT22;5630;49.342;10.802;2023-02-11T15:38:26;6.00;99.90
11152;DHT22;5630;49.342;10.802;2023-02-11T15:40:58;6.00;99.90
11152;DHT22;5630;49.342;10.802;2023-02-11T15:43:42;6.10;99.90
11152;DHT22;5630;49.342;10.802;2023-02-11T15:46:10;6.00;99.90
11152;DHT22;5630;49.342;10.802;2023-02-11T15:48:41;6.00;99.90
11152;DHT22;5630;49.342;10.802;2023-02-11T15:51:20;6.00;99.90
11152;DHT22;5630;49.342;10.802;2023-02-11T15:53:56;6.00;99.90
11152;DHT22;5630;49.342;10.802;2023-02-11T15:56:28;6.00;99.90
11152;DHT22;5630;49.342;10.802;2023-02-11T15:58:56;5.90;99.90
11152;DHT22;5630;49.342;10.802;2023-02-11T16:01:32;5.80;99.90
11152;DHT22;5630;49.342;10.802;2023-02-11T16:03:58;5.80;99.90
11152;DHT22;5630;49.342;10.802;2023-02-11T16:06:33;5.80;99.90
11152;DHT22;5630;49.342;10.802;2023-02-11T16:09:05;5.80;99.90
11152;DHT22;5630;49.342;10.802;2023-02-11T16:17:11;5.80;99.90
11152;DHT22;5630;49.342;10.802;2023-02-11T16:19:45;5.80;99.90
11152;DHT22;5630;49.342;10.802;2023-02-11T16:22:26;5.80;99.90
11152;DHT22;5630;49.342;10.802;2023-02-11T16:24:55;5.80;99.90
11152;DHT22;5630;49.342;10.802;2023-02-11T16:30:02;5.70;99.90
11152;DHT22;5630;49.342;10.802;2023-02-11T16:32:28;5.70;99.90
11152;DHT22;5630;49.342;10.802;2023-02-11T16:34:56;5.90;99.90
11152;DHT22;5630;49.342;10.802;2023-02-11T16:39:52;7.50;99.90
11152;DHT22;5630;49.342;10.802;2023-02-11T16:42:17;8.30;99.90
11152;DHT22;5630;49.342;10.802;2023-02-11T16:44:43;8.80;99.90
11152;DHT22;5630;49.342;10.802;2023-02-11T16:47:18;9.40;99.90
11152;DHT22;5630;49.342;10.802;2023-02-11T16:49:45;9.20;99.90
11152;DHT22;5630;49.342;10.802;2023-02-11T16:52:14;9.90;99.90
11152;DHT22;5630;49.342;10.802;2023-02-11T16:54:41;9.20;99.90
11152;DHT22;5630;49.342;10.802;2023-02-11T16:57:17;8.80;99.90
11152;DHT22;5630;49.342;10.802;2023-02-11T16:59:43;8.10;99.90
11152;DHT22;5630;49.342;10.802;2023-02-11T17:02:19;7.60;99.90
11152;DHT22;5630;49.342;10.802;2023-02-11T17:04:46;7.40;99.90
11152;DHT22;5630;49.342;10.802;2023-02-11T17:07:12;7.20;99.90
11152;DHT22;5630;49.342;10.802;2023-02-11T17:09:38;6.90;99.90
11152;DHT22;5630;49.342;10.802;2023-02-11T17:12:04;6.60;99.90
11152;DHT22;5630;49.342;10.802;2023-02-11T17:14:29;6.40;99.90
11152;DHT22;5630;49.342;10.802;2023-02-11T17:16:55;6.10;99.90
11152;DHT22;5630;49.342;10.802;2023-02-11T17:19:21;6.20;99.90
11152;DHT22;5630;49.342;10.802;2023-02-11T17:21:49;6.00;99.90
11152;DHT22;5630;49.342;10.802;2023-02-11T17:24:15;5.80;99.90
11152;DHT22;5630;49.342;10.802;2023-02-11T17:26:42;5.90;99.90
11152;DHT22;5630;49.342;10.802;2023-02-11T17:29:12;5.70;99.90
11152;DHT22;5630;49.342;10.802;2023-02-11T17:31:39;5.60;99.90
11152;DHT22;5630;49.342;10.802;2023-02-11T17:34:05;5.70;99.90
11152;DHT22;5630;49.342;10.802;2023-02-11T17:36:30;5.40;99.90
11152;DHT22;5630;49.342;10.802;2023-02-11T17:38:58;5.40;99.90
11152;DHT22;5630;49.342;10.802;2023-02-11T17:41:24;5.40;99.90
11152;DHT22;5630;49.342;10.802;2023-02-11T17:43:49;5.30;99.90
11152;DHT22;5630;49.342;10.802;2023-02-11T17:46:15;5.40;99.90
11152;DHT22;5630;49.342;10.802;2023-02-11T17:48:41;5.40;99.90
11152;DHT22;5630;49.342;10.802;2023-02-11T17:51:31;5.40;99.90
11152;DHT22;5630;49.342;10.802;2023-02-11T17:53:59;5.40;99.90
11152;DHT22;5630;49.342;10.802;2023-02-11T17:56:25;5.40;99.90
11152;DHT22;5630;49.342;10.802;2023-02-11T17:58:51;5.30;99.90
11152;DHT22;5630;49.342;10.802;2023-02-11T18:01:18;5.30;99.90
11152;DHT22;5630;49.342;10.802;2023-02-11T18:03:44;5.30;99.90
11152;DHT22;5630;49.342;10.802;2023-02-11T18:06:10;5.30;99.90
11152;DHT22;5630;49.342;10.802;2023-02-11T18:08:36;5.30;99.90
11152;DHT22;5630;49.342;10.802;2023-02-11T18:11:02;5.40;99.90
11152;DHT22;5630;49.342;10.802;2023-02-11T18:13:28;5.30;99.90
11152;DHT22;5630;49.342;10.802;2023-02-11T18:15:54;5.30;99.90
11152;DHT22;5630;49.342;10.802;2023-02-11T18:18:20;5.10;99.90
11152;DHT22;5630;49.342;10.802;2023-02-11T18:20:58;5.20;99.90
11152;DHT22;5630;49.342;10.802;2023-02-11T18:23:24;5.00;99.90
11152;DHT22;5630;49.342;10.802;2023-02-11T18:25:50;5.00;99.90
11152;DHT22;5630;49.342;10.802;2023-02-11T18:28:16;5.00;99.90
11152;DHT22;5630;49.342;10.802;2023-02-11T18:30:41;5.00;99.90
11152;DHT22;5630;49.342;10.802;2023-02-11T18:33:07;5.00;99.90
11152;DHT22;5630;49.342;10.802;2023-02-11T18:38:03;5.00;99.90
11152;DHT22;5630;49.342;10.802;2023-02-11T18:40:28;5.00;99.90
11152;DHT22;5630;49.342;10.802;2023-02-11T18:42:54;5.00;99.90
11152;DHT22;5630;49.342;10.802;2023-02-11T18:45:19;4.90;99.90
11152;DHT22;5630;49.342;10.802;2023-02-11T18:47:45;4.90;99.90
11152;DHT22;5630;49.342;10.802;2023-02-11T18:50:11;4.90;99.90
11152;DHT22;5630;49.342;10.802;2023-02-11T18:52:38;4.90;99.90
11152;DHT22;5630;49.342;10.802;2023-02-11T18:55:07;4.90;99.90